createdAt,value
2022-09-20T00:01:12.397Z,0.30
2022-09-20T00:03:42.584Z,0.40
2022-09-20T00:06:20.784Z,0.38
2022-09-20T00:08:48.775Z,1.35
2022-09-20T00:11:28.652Z,0.40
2022-09-20T00:13:57.771Z,0.43
2022-09-20T00:16:28.454Z,1.05
2022-09-20T00:18:57.319Z,0.40
2022-09-20T00:21:27.300Z,0.55
2022-09-20T00:23:54.850Z,0.45
2022-09-20T00:26:22.316Z,0.57
2022-09-20T00:28:50.282Z,0.60
2022-09-20T00:31:17.962Z,0.50
2022-09-20T00:34:03.591Z,0.50
2022-09-20T00:36:31.337Z,0.63
2022-09-20T00:39:00.310Z,0.50
2022-09-20T00:41:27.270Z,0.40
2022-09-20T00:43:55.180Z,0.40
2022-09-20T00:46:40.535Z,0.68
2022-09-20T00:49:21.483Z,0.60
2022-09-20T00:51:58.175Z,0.90
2022-09-20T00:54:27.130Z,0.80
2022-09-20T00:56:54.495Z,0.90
2022-09-20T00:59:38.055Z,1.20
2022-09-20T01:02:21.628Z,1.17
2022-09-20T01:04:50.201Z,0.90
2022-09-20T01:07:22.427Z,1.00
2022-09-20T01:09:50.573Z,0.70
2022-09-20T01:12:28.659Z,1.05
2022-09-20T01:14:56.442Z,1.08
2022-09-20T01:17:27.019Z,1.20
2022-09-20T01:20:12.837Z,1.27
2022-09-20T01:23:02.731Z,1.42
2022-09-20T01:26:08.357Z,1.02
2022-09-20T01:28:36.596Z,1.60
2022-09-20T01:31:24.980Z,1.15
2022-09-20T01:34:21.560Z,1.35
2022-09-20T01:37:01.974Z,1.05
2022-09-20T01:39:53.881Z,1.30
2022-09-20T01:42:26.422Z,1.58
2022-09-20T01:45:29.055Z,1.60
2022-09-20T01:48:19.501Z,1.02
2022-09-20T01:51:09.883Z,1.27
2022-09-20T01:53:55.489Z,1.40
2022-09-20T01:56:43.742Z,1.13
2022-09-20T01:59:55.480Z,1.38
2022-09-20T02:02:22.317Z,1.30
2022-09-20T02:05:06.969Z,1.10
2022-09-20T02:08:08.184Z,1.00
2022-09-20T02:10:50.450Z,1.30
2022-09-20T02:13:32.395Z,1.77
2022-09-20T02:16:16.698Z,1.33
2022-09-20T02:19:12.534Z,1.53
2022-09-20T02:21:51.983Z,1.23
2022-09-20T02:25:03.688Z,1.52
2022-09-20T02:27:55.391Z,1.52
2022-09-20T02:30:37.291Z,1.65
2022-09-20T02:33:16.452Z,1.60
2022-09-20T02:35:59.914Z,1.67
2022-09-20T02:38:45.715Z,2.13
2022-09-20T02:41:37.583Z,1.88
2022-09-20T02:44:35.518Z,2.25
2022-09-20T02:47:22.231Z,2.65
2022-09-20T02:50:02.489Z,2.65
2022-09-20T02:52:47.897Z,2.20
2022-09-20T02:55:21.540Z,2.60
2022-09-20T02:58:19.536Z,2.28
2022-09-20T03:01:07.933Z,2.22
2022-09-20T03:03:54.547Z,2.22
2022-09-20T03:06:55.383Z,2.28
2022-09-20T03:09:38.514Z,2.08
2022-09-20T03:12:30.526Z,2.53
2022-09-20T03:15:09.502Z,1.85
2022-09-20T03:18:15.057Z,2.90
2022-09-20T03:23:51.780Z,2.75
2022-09-20T03:26:32.494Z,2.65
2022-09-20T03:29:18.333Z,2.38
2022-09-20T03:32:21.756Z,3.08
2022-09-20T03:35:19.623Z,2.88
2022-09-20T03:38:06.872Z,3.20
2022-09-20T03:40:36.505Z,3.45
2022-09-20T03:43:19.142Z,3.70
2022-09-20T03:46:05.695Z,3.92
2022-09-20T03:48:32.456Z,4.00
2022-09-20T03:51:32.924Z,3.45
2022-09-20T03:54:33.527Z,2.78
2022-09-20T03:57:27.572Z,3.20
2022-09-20T04:00:25.535Z,3.05
2022-09-20T04:03:19.669Z,4.10
2022-09-20T04:06:24.461Z,3.47
2022-09-20T04:09:17.387Z,3.45
2022-09-20T04:11:53.153Z,4.05
2022-09-20T04:14:51.753Z,4.55
2022-09-20T04:17:39.483Z,4.43
2022-09-20T04:20:20.602Z,4.22
2022-09-20T04:22:51.524Z,5.18
2022-09-20T04:25:23.860Z,4.18
2022-09-20T04:27:57.263Z,4.97
2022-09-20T04:30:30.679Z,4.38
2022-09-20T04:33:05.898Z,4.75
2022-09-20T04:36:03.528Z,5.15
2022-09-20T04:38:31.056Z,6.20
2022-09-20T04:41:04.070Z,6.10
2022-09-20T04:43:52.451Z,5.50
2022-09-20T04:46:31.343Z,5.30
2022-09-20T04:49:27.720Z,5.00
2022-09-20T04:52:23.709Z,5.18
2022-09-20T04:55:21.321Z,5.30
2022-09-20T04:58:44.272Z,5.53
2022-09-20T05:01:36.192Z,5.30
2022-09-20T05:04:24.094Z,4.70
2022-09-20T05:07:04.404Z,5.00
2022-09-20T05:09:31.260Z,4.97
2022-09-20T05:12:42.702Z,4.97
2022-09-20T05:15:29.096Z,5.50
2022-09-20T05:18:04.766Z,4.28
2022-09-20T05:21:12.957Z,4.30
2022-09-20T05:23:58.588Z,5.03
2022-09-20T05:26:56.346Z,4.30
2022-09-20T05:29:51.115Z,4.38
2022-09-20T05:32:34.208Z,4.65
2022-09-20T05:35:19.739Z,5.18
2022-09-20T05:38:11.714Z,4.72
2022-09-20T05:41:07.550Z,4.75
2022-09-20T05:43:42.714Z,4.60
2022-09-20T05:46:24.802Z,4.63
2022-09-20T05:49:03.613Z,4.53
2022-09-20T05:51:52.442Z,6.38
2022-09-20T05:54:35.925Z,4.57
2022-09-20T05:57:29.006Z,5.00
2022-09-20T06:00:08.562Z,5.00
2022-09-20T06:03:12.314Z,4.63
2022-09-20T06:05:45.713Z,4.25
2022-09-20T06:08:25.840Z,4.38
2022-09-20T06:11:24.428Z,4.65
2022-09-20T06:14:10.250Z,4.90
2022-09-20T06:16:36.987Z,4.38
2022-09-20T06:19:15.126Z,4.47
2022-09-20T06:21:52.861Z,4.30
2022-09-20T06:24:51.741Z,4.35
2022-09-20T06:27:24.606Z,4.10
2022-09-20T06:29:57.503Z,4.43
2022-09-20T06:32:24.409Z,4.75
2022-09-20T06:34:52.057Z,3.70
2022-09-20T06:38:11.305Z,3.67
2022-09-20T06:41:03.885Z,3.25
2022-09-20T06:43:31.922Z,3.55
2022-09-20T06:45:59.259Z,3.88
2022-09-20T06:48:26.096Z,3.17
2022-09-20T06:50:52.966Z,3.30
2022-09-20T06:53:29.213Z,2.80
2022-09-20T06:55:57.498Z,2.97
2022-09-20T06:58:24.403Z,2.80
2022-09-20T07:00:51.284Z,3.88
2022-09-20T07:03:20.068Z,2.80
2022-09-20T07:05:47.282Z,2.97
2022-09-20T07:08:14.022Z,2.95
2022-09-20T07:10:41.268Z,3.55
2022-09-20T07:13:08.366Z,3.45
2022-09-20T07:15:38.138Z,3.65
2022-09-20T07:18:05.234Z,2.90
2022-09-20T07:20:31.960Z,3.63
2022-09-20T07:22:59.432Z,3.63
2022-09-20T07:25:26.283Z,3.50
2022-09-20T07:27:53.159Z,4.00
2022-09-20T07:30:20.584Z,2.78
2022-09-20T07:32:49.529Z,2.78
2022-09-20T07:35:16.758Z,2.28
2022-09-20T07:37:43.745Z,3.30
2022-09-20T07:40:11.820Z,2.50
2022-09-20T07:42:39.175Z,2.67
2022-09-20T07:45:07.310Z,2.97
2022-09-20T07:47:35.553Z,2.63
2022-09-20T07:50:03.825Z,2.17
2022-09-20T07:52:31.072Z,1.77
2022-09-20T07:54:58.095Z,1.35
2022-09-20T07:57:24.906Z,1.30
2022-09-20T07:59:51.692Z,1.17
2022-09-20T08:02:18.632Z,1.23
2022-09-20T08:04:45.402Z,1.30
2022-09-20T08:07:12.847Z,0.98
2022-09-20T08:09:39.802Z,0.90
2022-09-20T08:14:55.668Z,1.13
2022-09-20T08:17:22.449Z,1.23
2022-09-20T08:19:50.714Z,1.17
2022-09-20T08:22:17.751Z,1.23
2022-09-20T08:24:44.929Z,0.80
2022-09-20T08:27:11.835Z,1.00
2022-09-20T08:29:38.563Z,1.58
2022-09-20T08:32:05.377Z,1.77
2022-09-20T08:34:32.164Z,0.90
2022-09-20T08:36:59.696Z,1.58
2022-09-20T08:42:18.035Z,0.93
2022-09-20T08:45:33.677Z,0.60
2022-09-20T08:48:05.779Z,0.90
2022-09-20T08:50:34.779Z,0.90
2022-09-20T08:53:05.692Z,0.80
2022-09-20T08:55:36.851Z,0.80
2022-09-20T08:58:08.461Z,1.02
2022-09-20T09:00:37.493Z,10.27
2022-09-20T09:03:17.260Z,0.80
2022-09-20T09:05:53.138Z,0.60
2022-09-20T09:08:28.595Z,0.90
2022-09-20T09:11:14.277Z,0.70
2022-09-20T09:14:30.743Z,0.80
2022-09-20T09:16:58.238Z,0.70
2022-09-20T09:19:36.545Z,1.17
2022-09-20T09:22:05.454Z,0.80
2022-09-20T09:24:32.519Z,0.60
2022-09-20T09:27:07.993Z,0.60
2022-09-20T09:29:35.091Z,0.75
2022-09-20T09:32:29.259Z,0.60
2022-09-20T09:34:57.438Z,0.65
2022-09-20T09:37:31.358Z,0.98
2022-09-20T09:40:19.014Z,0.60
2022-09-20T09:42:57.776Z,0.50
2022-09-20T09:45:27.128Z,0.43
2022-09-20T09:47:55.421Z,0.68
2022-09-20T09:50:30.666Z,0.47
2022-09-20T09:53:04.374Z,0.50
2022-09-20T09:55:52.870Z,0.63
2022-09-20T09:58:56.249Z,0.77
2022-09-20T10:01:33.527Z,0.77
2022-09-20T10:04:19.771Z,1.42
2022-09-20T10:07:17.790Z,0.40
2022-09-20T10:10:07.420Z,0.70
2022-09-20T10:13:23.631Z,0.70
2022-09-20T10:16:09.853Z,1.10
2022-09-20T10:18:55.670Z,0.80
2022-09-20T10:21:48.808Z,0.60
2022-09-20T10:24:33.141Z,0.45
2022-09-20T10:27:08.927Z,0.60
2022-09-20T10:29:54.426Z,0.22
2022-09-20T10:32:52.216Z,0.50
2022-09-20T10:35:33.854Z,0.40
2022-09-20T10:38:16.288Z,0.73
2022-09-20T10:41:23.454Z,0.50
2022-09-20T10:44:12.856Z,0.43
2022-09-20T10:46:51.756Z,1.10
2022-09-20T10:49:27.253Z,1.30
2022-09-20T10:52:01.293Z,0.32
2022-09-20T10:54:39.929Z,0.50
2022-09-20T10:57:46.838Z,0.82
2022-09-20T11:00:42.292Z,0.50
2022-09-20T11:03:46.555Z,0.65
2022-09-20T11:06:32.382Z,0.40
2022-09-20T11:09:02.575Z,0.75
2022-09-20T11:11:41.564Z,0.40
2022-09-20T11:14:19.405Z,0.50
2022-09-20T11:17:01.873Z,0.60
2022-09-20T11:19:47.765Z,0.40
2022-09-20T11:22:18.979Z,0.50
2022-09-20T11:25:04.430Z,0.50
2022-09-20T11:27:38.062Z,2.00
2022-09-20T11:30:17.432Z,1.17
2022-09-20T11:32:59.310Z,1.85
2022-09-20T11:35:53.038Z,0.90
2022-09-20T11:38:40.804Z,0.50
2022-09-20T11:41:16.255Z,0.47
2022-09-20T11:43:44.595Z,0.95
2022-09-20T11:46:18.464Z,1.60
2022-09-20T11:49:31.907Z,6.82
2022-09-20T11:52:10.978Z,1.98
2022-09-20T11:54:40.715Z,3.13
2022-09-20T11:57:15.831Z,2.25
2022-09-20T11:59:51.504Z,1.23
2022-09-20T12:02:21.867Z,1.52
2022-09-20T12:04:53.412Z,0.82
2022-09-20T12:07:28.597Z,0.65
2022-09-20T12:10:02.882Z,0.60
2022-09-20T12:12:44.218Z,0.90
2022-09-20T12:15:28.437Z,0.60
2022-09-20T12:18:09.586Z,0.70
2022-09-20T12:20:38.670Z,0.70
2022-09-20T12:23:40.627Z,0.90
2022-09-20T12:26:07.964Z,0.50
2022-09-20T12:28:37.783Z,1.50
2022-09-20T12:31:23.129Z,0.90
2022-09-20T12:34:11.921Z,1.67
2022-09-20T12:36:43.131Z,1.58
2022-09-20T12:39:15.304Z,0.95
2022-09-20T12:41:47.763Z,3.92
2022-09-20T12:44:36.482Z,2.28
2022-09-20T12:47:12.580Z,1.00
2022-09-20T12:50:04.147Z,0.98
2022-09-20T12:52:55.742Z,1.85
2022-09-20T12:55:40.661Z,0.70
2022-09-20T12:58:16.494Z,0.80
2022-09-20T13:00:46.704Z,1.00
2022-09-20T13:03:22.083Z,0.90
2022-09-20T13:05:54.341Z,0.68
2022-09-20T13:08:25.463Z,0.95
2022-09-20T13:11:01.238Z,1.10
2022-09-20T13:13:51.864Z,1.00
2022-09-20T13:16:39.940Z,1.00
2022-09-20T13:19:09.771Z,1.00
2022-09-20T13:21:40.473Z,0.50
2022-09-20T13:24:11.296Z,0.88
2022-09-20T13:26:46.193Z,2.25
2022-09-20T13:29:39.166Z,0.68
2022-09-20T13:32:35.870Z,0.50
2022-09-20T13:35:06.973Z,1.33
2022-09-20T13:37:35.111Z,0.70
2022-09-20T13:40:03.308Z,0.70
2022-09-20T13:42:31.971Z,0.85
2022-09-20T13:44:59.312Z,0.70
2022-09-20T13:47:31.938Z,0.70
2022-09-20T13:50:18.509Z,0.60
2022-09-20T13:52:54.372Z,0.50
2022-09-20T13:55:33.467Z,0.52
2022-09-20T13:58:17.147Z,0.47
2022-09-20T14:00:50.531Z,0.60
2022-09-20T14:03:18.711Z,0.77
2022-09-20T14:05:51.626Z,0.70
2022-09-20T14:08:46.505Z,0.60
2022-09-20T14:11:22.927Z,0.60
2022-09-20T14:13:59.174Z,0.47
2022-09-20T14:16:35.034Z,0.50
2022-09-20T14:19:04.006Z,0.50
2022-09-20T14:21:35.747Z,0.57
2022-09-20T14:24:32.558Z,0.25
2022-09-20T14:27:21.487Z,0.43
2022-09-20T14:29:51.136Z,0.60
2022-09-20T14:32:17.869Z,0.30
2022-09-20T14:35:00.509Z,0.45
2022-09-20T14:37:32.769Z,0.47
2022-09-20T14:40:03.695Z,0.75
2022-09-20T14:42:41.402Z,0.60
2022-09-20T14:45:20.447Z,0.63
2022-09-20T14:47:55.476Z,0.50
2022-09-20T14:50:24.315Z,0.82
2022-09-20T14:53:11.484Z,0.82
2022-09-20T14:55:40.415Z,0.40
2022-09-20T14:58:11.228Z,0.43
2022-09-20T15:00:47.604Z,0.40
2022-09-20T15:03:17.169Z,0.70
2022-09-20T15:05:50.039Z,0.60
2022-09-20T15:08:20.555Z,0.73
2022-09-20T15:10:47.827Z,0.50
2022-09-20T15:13:15.230Z,0.90
2022-09-20T15:15:44.430Z,0.50
2022-09-20T15:18:21.786Z,0.50
2022-09-20T15:20:50.129Z,0.65
2022-09-20T15:23:17.247Z,0.52
2022-09-20T15:25:44.432Z,0.50
2022-09-20T15:28:18.759Z,0.50
2022-09-20T15:30:52.574Z,0.30
2022-09-20T15:33:21.275Z,0.60
2022-09-20T15:35:48.701Z,0.55
2022-09-20T15:38:18.359Z,0.30
2022-09-20T15:40:47.901Z,0.47
2022-09-20T15:43:17.547Z,0.98
2022-09-20T15:45:50.234Z,0.80
2022-09-20T15:48:21.495Z,0.80
2022-09-20T15:51:11.377Z,0.70
2022-09-20T15:53:41.390Z,1.17
2022-09-20T15:56:27.433Z,1.38
2022-09-20T15:58:59.225Z,0.90
2022-09-20T16:01:32.389Z,0.60
2022-09-20T16:04:00.133Z,0.70
2022-09-20T16:06:26.951Z,0.90
2022-09-20T16:08:53.793Z,0.90
2022-09-20T16:11:23.016Z,1.10
2022-09-20T16:13:54.503Z,0.73
2022-09-20T16:16:21.612Z,1.13
2022-09-20T16:19:07.892Z,1.27
2022-09-20T16:21:36.614Z,1.30
2022-09-20T16:24:03.561Z,1.92
2022-09-20T16:26:31.334Z,1.05
2022-09-20T16:28:58.713Z,1.20
2022-09-20T16:31:42.134Z,1.40
2022-09-20T16:34:19.423Z,1.10
2022-09-20T16:36:47.581Z,1.30
2022-09-20T16:39:15.927Z,1.30
2022-09-20T16:41:44.487Z,1.35
2022-09-20T16:44:11.323Z,1.38
2022-09-20T16:46:38.026Z,1.60
2022-09-20T16:49:13.543Z,1.50
2022-09-20T16:51:42.575Z,1.90
2022-09-20T16:54:14.930Z,1.85
2022-09-20T16:56:47.043Z,1.52
2022-09-20T16:59:15.908Z,2.00
2022-09-20T17:01:44.202Z,2.60
2022-09-20T17:04:14.393Z,2.75
2022-09-20T17:06:43.540Z,2.78
2022-09-20T17:09:12.281Z,2.65
2022-09-20T17:11:42.284Z,2.70
2022-09-20T17:14:09.708Z,2.08
2022-09-20T17:16:38.814Z,2.42
2022-09-20T17:19:07.455Z,2.55
2022-09-20T17:21:36.736Z,2.20
2022-09-20T17:24:06.287Z,2.45
2022-09-20T17:26:38.915Z,2.28
2022-09-20T17:29:07.706Z,2.53
2022-09-20T17:31:39.144Z,2.90
2022-09-20T17:34:09.574Z,2.10
2022-09-20T17:36:41.932Z,2.40
2022-09-20T17:39:11.153Z,2.85
2022-09-20T17:41:41.983Z,3.08
2022-09-20T17:44:10.127Z,2.72
2022-09-20T17:46:39.328Z,3.80
2022-09-20T17:49:11.108Z,2.70
2022-09-20T17:51:42.279Z,2.30
2022-09-20T17:54:13.781Z,2.28
2022-09-20T17:56:42.761Z,2.50
2022-09-20T17:59:10.813Z,2.38
2022-09-20T18:01:38.946Z,2.42
2022-09-20T18:04:06.988Z,2.78
2022-09-20T18:06:45.262Z,4.32
2022-09-20T18:09:15.590Z,16.38
2022-09-20T18:11:49.084Z,24.00
2022-09-20T18:14:21.223Z,21.17
2022-09-20T18:16:48.146Z,20.98
2022-09-20T18:19:16.158Z,10.55
2022-09-20T18:21:43.403Z,6.95
2022-09-20T18:24:11.557Z,9.45
2022-09-20T18:26:39.583Z,4.85
2022-09-20T18:29:12.402Z,6.80
2022-09-20T18:31:58.029Z,3.85
2022-09-20T18:34:31.329Z,4.72
2022-09-20T18:36:59.829Z,10.25
2022-09-20T18:39:34.993Z,9.98
2022-09-20T18:42:03.310Z,10.95
2022-09-20T18:44:34.002Z,8.90
2022-09-20T18:47:02.708Z,4.43
2022-09-20T18:49:30.662Z,4.93
2022-09-20T18:51:58.431Z,4.50
2022-09-20T18:54:25.246Z,7.50
2022-09-20T18:56:52.532Z,4.60
2022-09-20T18:59:21.827Z,4.68
2022-09-20T19:01:48.880Z,3.95
2022-09-20T19:04:37.627Z,3.95
2022-09-20T19:07:13.525Z,4.30
2022-09-20T19:09:50.793Z,3.22
2022-09-20T19:12:39.211Z,3.20
2022-09-20T19:15:08.834Z,4.13
2022-09-20T19:17:50.588Z,3.80
2022-09-20T19:20:29.789Z,3.50
2022-09-20T19:23:33.828Z,3.83
2022-09-20T19:26:08.729Z,3.80
2022-09-20T19:28:36.241Z,4.10
2022-09-20T19:31:03.357Z,3.92
2022-09-20T19:33:30.427Z,3.92
2022-09-20T19:35:59.168Z,3.90
2022-09-20T19:38:25.865Z,4.05
2022-09-20T19:40:59.565Z,4.43
2022-09-20T19:43:44.813Z,3.38
2022-09-20T19:46:14.424Z,3.28
2022-09-20T19:48:55.160Z,3.90
2022-09-20T19:51:22.538Z,3.17
2022-09-20T19:53:50.271Z,3.83
2022-09-20T19:56:21.548Z,3.75
2022-09-20T19:58:53.037Z,4.45
2022-09-20T20:01:22.673Z,4.75
2022-09-20T20:03:54.253Z,6.15
2022-09-20T20:06:33.398Z,6.03
2022-09-20T20:09:13.326Z,6.78
2022-09-20T20:12:01.724Z,5.85
2022-09-20T20:15:02.995Z,10.30
2022-09-20T20:18:07.039Z,5.03
2022-09-20T20:20:47.701Z,4.70
2022-09-20T20:23:35.811Z,5.50
2022-09-20T20:26:08.973Z,4.47
2022-09-20T20:28:37.605Z,4.55
2022-09-20T20:31:06.272Z,3.97
2022-09-20T20:33:33.609Z,4.00
2022-09-20T20:36:02.087Z,4.00
2022-09-20T20:38:36.493Z,3.90
2022-09-20T20:41:11.793Z,4.03
2022-09-20T20:43:41.626Z,5.43
2022-09-20T20:46:11.077Z,4.70
2022-09-20T20:48:38.228Z,4.47
2022-09-20T20:51:08.850Z,4.95
2022-09-20T20:53:37.890Z,4.55
2022-09-20T20:56:07.699Z,4.15
2022-09-20T20:58:36.916Z,3.83
2022-09-20T21:01:05.848Z,4.05
2022-09-20T21:03:33.617Z,3.90
2022-09-20T21:06:00.462Z,4.00
2022-09-20T21:08:32.633Z,5.10
2022-09-20T21:11:10.373Z,4.50
2022-09-20T21:13:40.493Z,4.47
2022-09-20T21:16:11.185Z,4.30
2022-09-20T21:18:39.874Z,4.15
2022-09-20T21:21:35.274Z,4.93
2022-09-20T21:24:05.243Z,5.07
2022-09-20T21:26:34.268Z,4.22
2022-09-20T21:29:03.081Z,4.70
2022-09-20T21:31:33.439Z,5.20
2022-09-20T21:34:00.737Z,4.13
2022-09-20T21:36:29.792Z,3.83
2022-09-20T21:38:56.974Z,4.35
2022-09-20T21:41:31.611Z,3.55
2022-09-20T21:44:00.477Z,3.53
2022-09-20T21:46:29.597Z,3.75
2022-09-20T21:48:58.185Z,4.03
2022-09-20T21:51:26.136Z,3.70
2022-09-20T21:53:54.392Z,3.92
2022-09-20T21:56:21.200Z,4.50
2022-09-20T21:58:48.066Z,3.88
2022-09-20T22:01:17.470Z,4.00
2022-09-20T22:03:52.847Z,5.63
2022-09-20T22:06:22.255Z,4.75
2022-09-20T22:08:52.389Z,4.93
2022-09-20T22:11:22.018Z,5.95
2022-09-20T22:13:50.810Z,5.82
2022-09-20T22:16:27.026Z,6.28
2022-09-20T22:18:54.351Z,5.60
2022-09-20T22:21:26.856Z,6.30
2022-09-20T22:23:58.945Z,5.95
2022-09-20T22:26:30.050Z,6.38
2022-09-20T22:29:00.916Z,5.50
2022-09-20T22:31:30.186Z,6.45
2022-09-20T22:34:00.085Z,6.35
2022-09-20T22:36:32.532Z,5.85
2022-09-20T22:38:59.253Z,6.88
2022-09-20T22:41:26.186Z,6.60
2022-09-20T22:43:53.434Z,7.35
2022-09-20T22:46:23.003Z,7.50
2022-09-20T22:48:50.523Z,7.00
2022-09-20T22:51:26.156Z,6.63
2022-09-20T22:53:53.176Z,5.15
2022-09-20T22:56:21.269Z,5.60
2022-09-20T22:58:52.588Z,5.40
2022-09-20T23:01:24.877Z,4.25
2022-09-20T23:04:04.569Z,4.28
2022-09-20T23:06:34.629Z,3.45
2022-09-20T23:09:04.402Z,3.88
2022-09-20T23:11:31.534Z,3.80
2022-09-20T23:14:05.224Z,3.85
2022-09-20T23:16:34.525Z,3.33
2022-09-20T23:19:02.170Z,3.33
2022-09-20T23:21:29.956Z,3.50
2022-09-20T23:24:02.091Z,3.83
2022-09-20T23:26:31.404Z,3.10
2022-09-20T23:29:16.308Z,3.92
2022-09-20T23:31:46.430Z,3.70
2022-09-20T23:34:15.024Z,4.00
2022-09-20T23:36:42.151Z,4.18
2022-09-20T23:39:10.107Z,3.78
2022-09-20T23:41:38.652Z,4.25
2022-09-20T23:44:06.873Z,4.60
2022-09-20T23:46:34.446Z,4.72
2022-09-20T23:49:01.867Z,4.10
2022-09-20T23:51:29.601Z,4.72
2022-09-20T23:53:57.000Z,4.63
2022-09-20T23:56:24.191Z,4.38
2022-09-20T23:58:51.122Z,4.32
